createdAt,value
2018-07-15T00:02:09.904Z,66.61
2018-07-15T00:04:38.328Z,67.39
2018-07-15T00:07:06.867Z,67.42
2018-07-15T00:09:35.341Z,67.84
2018-07-15T00:12:03.848Z,68.04
2018-07-15T00:14:32.295Z,68.26
2018-07-15T00:17:00.717Z,67.96
2018-07-15T00:19:29.281Z,68.43
2018-07-15T00:21:57.721Z,67.44
2018-07-15T00:24:26.349Z,67.22
2018-07-15T00:26:54.818Z,68.48
2018-07-15T00:29:23.294Z,69.09
2018-07-15T00:31:52.336Z,69.12
2018-07-15T00:34:21.176Z,69.53
2018-07-15T00:36:49.616Z,69.41
2018-07-15T00:39:18.155Z,68.65
2018-07-15T00:41:46.584Z,68.80
2018-07-15T00:44:15.017Z,68.35
2018-07-15T00:46:43.478Z,67.76
2018-07-15T00:49:12.070Z,68.45
2018-07-15T00:51:40.487Z,69.48
2018-07-15T00:54:08.933Z,69.18
2018-07-15T00:56:37.578Z,68.94
2018-07-15T00:59:06.101Z,68.88
2018-07-15T01:01:34.591Z,68.43
2018-07-15T01:04:03.298Z,69.85
2018-07-15T01:06:31.876Z,70.48
2018-07-15T01:09:00.340Z,69.46
2018-07-15T01:11:28.820Z,69.50
2018-07-15T01:13:57.257Z,69.69
2018-07-15T01:16:25.729Z,70.15
2018-07-15T01:18:54.279Z,70.31
2018-07-15T01:21:22.753Z,70.57
2018-07-15T01:23:51.233Z,71.29
2018-07-15T01:26:19.722Z,71.12
2018-07-15T01:28:48.394Z,71.04
2018-07-15T01:31:16.982Z,70.23
2018-07-15T01:33:45.678Z,70.20
2018-07-15T01:36:14.221Z,71.30
2018-07-15T01:38:42.770Z,71.97
2018-07-15T01:41:11.332Z,72.47
2018-07-15T01:43:39.909Z,72.62
2018-07-15T01:46:08.339Z,72.99
2018-07-15T01:48:36.922Z,71.83
2018-07-15T01:51:05.451Z,71.14
2018-07-15T01:53:33.942Z,70.73
2018-07-15T01:56:02.358Z,71.86
2018-07-15T01:58:30.895Z,72.44
2018-07-15T02:00:59.357Z,72.64
2018-07-15T02:03:27.782Z,72.88
2018-07-15T02:05:56.349Z,73.21
2018-07-15T02:08:24.812Z,73.70
2018-07-15T02:10:53.252Z,73.54
2018-07-15T02:13:21.804Z,73.92
2018-07-15T02:15:50.586Z,73.44
2018-07-15T02:18:19.039Z,72.35
2018-07-15T02:20:47.467Z,73.10
2018-07-15T02:23:15.923Z,73.58
2018-07-15T02:25:44.409Z,73.50
2018-07-15T02:28:12.837Z,73.20
2018-07-15T02:30:41.340Z,72.69
2018-07-15T02:33:09.840Z,71.53
2018-07-15T02:35:38.337Z,71.55
2018-07-15T02:38:07.738Z,72.37
2018-07-15T02:40:36.247Z,71.98
2018-07-15T02:43:04.830Z,71.41
2018-07-15T02:45:33.273Z,72.74
2018-07-15T02:48:01.754Z,73.19
2018-07-15T02:50:30.180Z,74.09
2018-07-15T02:52:58.741Z,74.23
2018-07-15T02:55:27.254Z,74.89
2018-07-15T02:57:55.729Z,74.62
2018-07-15T03:00:24.324Z,74.12
2018-07-15T03:02:52.770Z,73.14
2018-07-15T03:05:21.235Z,73.87
2018-07-15T03:07:49.655Z,74.37
2018-07-15T03:10:18.240Z,74.65
2018-07-15T03:12:46.666Z,74.76
2018-07-15T03:15:15.085Z,73.88
2018-07-15T03:17:43.648Z,73.10
2018-07-15T03:20:12.137Z,73.38
2018-07-15T03:22:40.612Z,73.57
2018-07-15T03:25:09.422Z,73.20
2018-07-15T03:27:37.996Z,73.40
2018-07-15T03:30:06.814Z,72.95
2018-07-15T03:32:35.240Z,73.74
2018-07-15T03:35:03.668Z,73.87
2018-07-15T03:37:32.105Z,73.93
2018-07-15T03:40:00.709Z,73.83
2018-07-15T03:42:28.987Z,74.07
2018-07-15T03:44:57.395Z,74.52
2018-07-15T03:47:25.821Z,74.03
2018-07-15T03:49:54.249Z,73.92
2018-07-15T03:52:22.689Z,74.29
2018-07-15T03:54:51.279Z,75.09
2018-07-15T03:57:19.707Z,75.61
2018-07-15T03:59:48.249Z,75.67
2018-07-15T04:02:16.675Z,75.75
2018-07-15T04:04:45.225Z,74.84
2018-07-15T04:07:13.781Z,74.53
2018-07-15T04:09:42.218Z,74.54
2018-07-15T04:12:10.665Z,75.00
2018-07-15T04:14:39.219Z,75.36
2018-07-15T04:17:08.846Z,75.18
2018-07-15T04:19:37.947Z,74.86
2018-07-15T04:22:06.639Z,75.14
2018-07-15T04:24:35.054Z,74.92
2018-07-15T04:27:03.500Z,75.07
2018-07-15T04:29:31.954Z,75.23
2018-07-15T04:32:00.548Z,74.96
2018-07-15T04:34:29.001Z,75.54
2018-07-15T04:36:57.525Z,76.15
2018-07-15T04:39:26.005Z,76.55
2018-07-15T04:41:54.489Z,76.50
2018-07-15T04:44:23.010Z,76.30
2018-07-15T04:46:51.555Z,75.88
2018-07-15T04:49:20.022Z,75.38
2018-07-15T04:51:48.516Z,74.81
2018-07-15T04:54:16.967Z,74.54
2018-07-15T04:56:45.487Z,74.22
2018-07-15T04:59:13.921Z,73.89
2018-07-15T05:01:42.844Z,73.70
2018-07-15T05:04:12.756Z,74.13
2018-07-15T05:06:41.284Z,73.37
2018-07-15T05:09:09.824Z,73.36
2018-07-15T05:11:39.026Z,72.85
2018-07-15T05:14:08.123Z,72.58
2018-07-15T05:16:37.022Z,72.12
2018-07-15T05:19:05.811Z,71.46
2018-07-15T05:21:34.277Z,71.44
2018-07-15T05:24:02.793Z,71.31
2018-07-15T05:26:31.344Z,71.30
2018-07-15T05:28:59.834Z,71.10
2018-07-15T05:31:28.436Z,70.77
2018-07-15T05:33:56.912Z,70.49
2018-07-15T05:36:25.382Z,70.16
2018-07-15T05:38:53.847Z,70.20
2018-07-15T05:41:22.353Z,70.10
2018-07-15T05:43:50.922Z,69.37
2018-07-15T05:46:19.441Z,69.26
2018-07-15T05:48:47.869Z,68.72
2018-07-15T05:51:16.382Z,68.49
2018-07-15T05:53:44.876Z,67.97
2018-07-15T05:56:13.380Z,68.09
2018-07-15T05:58:42.158Z,67.72
2018-07-15T06:01:10.714Z,67.23
2018-07-15T06:03:39.208Z,67.37
2018-07-15T06:06:07.743Z,67.48
2018-07-15T06:08:36.315Z,67.13
2018-07-15T06:11:04.837Z,67.02
2018-07-15T06:13:33.344Z,66.65
2018-07-15T06:16:01.822Z,66.47
2018-07-15T06:18:30.420Z,66.79
2018-07-15T06:20:59.025Z,66.40
2018-07-15T06:23:27.595Z,65.92
2018-07-15T06:25:56.747Z,65.90
2018-07-15T06:28:25.165Z,65.82
2018-07-15T06:30:53.721Z,65.06
2018-07-15T06:33:27.767Z,65.22
2018-07-15T06:35:56.313Z,65.13
2018-07-15T06:38:24.932Z,65.03
2018-07-15T06:40:53.480Z,64.96
2018-07-15T06:43:21.968Z,64.72
2018-07-15T06:45:50.560Z,64.18
2018-07-15T06:48:19.149Z,63.91
2018-07-15T06:50:47.632Z,63.42
2018-07-15T06:53:16.445Z,63.13
2018-07-15T06:55:47.771Z,62.97
2018-07-15T06:58:18.713Z,62.51
2018-07-15T07:00:53.042Z,62.71
2018-07-15T07:03:21.488Z,62.72
2018-07-15T07:05:50.018Z,61.63
2018-07-15T07:08:18.461Z,60.83
2018-07-15T07:10:46.903Z,60.53
2018-07-15T07:13:15.465Z,60.15
2018-07-15T07:15:43.995Z,59.42
2018-07-15T07:18:12.452Z,59.88
2018-07-15T07:20:40.932Z,60.18
2018-07-15T07:23:09.342Z,58.60
2018-07-15T07:25:37.801Z,57.65
2018-07-15T07:28:06.321Z,57.47
2018-07-15T07:33:07.499Z,56.42
2018-07-15T07:35:35.965Z,56.40
2018-07-15T07:38:04.453Z,56.59
2018-07-15T07:40:32.917Z,55.77
2018-07-15T07:43:01.393Z,54.62
2018-07-15T07:45:29.879Z,54.60
2018-07-15T07:47:58.371Z,54.22
2018-07-15T07:50:26.943Z,53.55
2018-07-15T07:52:55.525Z,52.46
2018-07-15T07:55:23.953Z,53.08
2018-07-15T07:57:52.499Z,53.36
2018-07-15T08:00:20.979Z,53.02
2018-07-15T08:02:49.450Z,52.72
2018-07-15T08:05:17.966Z,52.27
2018-07-15T08:07:46.542Z,51.38
2018-07-15T08:10:15.234Z,50.91
2018-07-15T08:12:43.703Z,50.98
2018-07-15T08:15:12.407Z,50.22
2018-07-15T08:17:40.949Z,49.62
2018-07-15T08:20:09.496Z,50.06
2018-07-15T08:22:38.023Z,49.63
2018-07-15T08:25:06.603Z,48.82
2018-07-15T08:27:35.206Z,48.76
2018-07-15T08:30:15.105Z,48.76
2018-07-15T08:32:43.665Z,48.09
2018-07-15T08:35:12.113Z,47.80
2018-07-15T08:37:40.533Z,47.87
2018-07-15T08:40:09.080Z,48.27
2018-07-15T08:42:37.581Z,47.77
2018-07-15T08:45:06.236Z,46.91
2018-07-15T08:47:34.778Z,46.39
2018-07-15T08:50:03.356Z,45.87
2018-07-15T08:52:31.901Z,46.68
2018-07-15T08:55:00.378Z,47.38
2018-07-15T08:57:28.911Z,46.73
2018-07-15T08:59:57.430Z,45.61
2018-07-15T09:02:25.906Z,45.60
2018-07-15T09:04:54.394Z,45.25
2018-07-15T09:07:22.956Z,45.06
2018-07-15T09:09:51.601Z,44.41
2018-07-15T09:12:20.067Z,43.12
2018-07-15T09:14:48.629Z,44.41
2018-07-15T09:17:17.164Z,43.29
2018-07-15T09:19:45.730Z,42.79
2018-07-15T09:22:14.284Z,42.81
2018-07-15T09:24:42.800Z,43.08
2018-07-15T09:27:11.242Z,43.32
2018-07-15T09:29:39.727Z,42.61
2018-07-15T09:32:08.165Z,41.71
2018-07-15T09:34:36.653Z,41.48
2018-07-15T09:37:05.849Z,41.90
2018-07-15T09:39:36.734Z,41.84
2018-07-15T09:42:05.320Z,41.55
2018-07-15T09:44:33.796Z,41.11
2018-07-15T09:47:02.292Z,41.15
2018-07-15T09:49:30.799Z,40.35
2018-07-15T09:51:59.269Z,40.60
2018-07-15T09:54:27.723Z,39.59
2018-07-15T09:56:56.259Z,39.53
2018-07-15T09:59:24.712Z,39.50
2018-07-15T10:01:53.302Z,38.90
2018-07-15T10:04:21.995Z,38.83
2018-07-15T10:06:51.267Z,37.84
2018-07-15T10:09:19.745Z,38.19
2018-07-15T10:11:52.637Z,37.88
2018-07-15T10:14:21.204Z,37.98
2018-07-15T10:16:49.774Z,38.08
2018-07-15T10:19:18.428Z,37.47
2018-07-15T10:21:46.966Z,37.55
2018-07-15T10:24:15.553Z,38.37
2018-07-15T10:26:44.265Z,38.15
2018-07-15T10:29:12.730Z,37.00
2018-07-15T10:31:41.220Z,36.79
2018-07-15T10:34:09.796Z,36.83
2018-07-15T10:36:38.262Z,36.34
2018-07-15T10:39:07.322Z,37.41
2018-07-15T10:41:36.617Z,37.05
2018-07-15T10:44:05.201Z,36.82
2018-07-15T10:46:33.628Z,37.86
2018-07-15T10:49:02.115Z,36.79
2018-07-15T10:51:30.676Z,36.72
2018-07-15T10:54:00.078Z,36.29
2018-07-15T10:56:28.624Z,35.54
2018-07-15T10:58:57.133Z,34.52
2018-07-15T11:01:25.637Z,35.06
2018-07-15T11:03:54.103Z,34.73
2018-07-15T11:06:22.587Z,34.76
2018-07-15T11:08:51.120Z,33.93
2018-07-15T11:11:19.628Z,33.37
2018-07-15T11:13:48.518Z,33.26
2018-07-15T11:16:16.961Z,32.52
2018-07-15T11:18:45.783Z,32.90
2018-07-15T11:21:14.309Z,33.23
2018-07-15T11:23:42.805Z,33.69
2018-07-15T11:26:11.609Z,34.33
2018-07-15T11:28:40.174Z,32.73
2018-07-15T11:31:09.773Z,31.66
2018-07-15T11:33:38.142Z,31.76
2018-07-15T11:36:07.269Z,31.46
2018-07-15T11:38:35.716Z,30.43
2018-07-15T11:41:04.514Z,30.70
2018-07-15T11:43:33.175Z,29.46
2018-07-15T11:46:01.745Z,28.85
2018-07-15T11:48:30.259Z,28.12
2018-07-15T11:50:58.737Z,29.19
2018-07-15T11:53:27.197Z,27.76
2018-07-15T11:55:55.956Z,27.85
2018-07-15T11:58:33.717Z,26.99
2018-07-15T12:01:02.447Z,26.85
2018-07-15T12:03:30.913Z,26.58
2018-07-15T12:05:59.439Z,26.13
2018-07-15T12:08:27.900Z,26.30
2018-07-15T12:10:56.410Z,24.28
2018-07-15T12:13:24.912Z,24.17
2018-07-15T12:15:53.365Z,24.54
2018-07-15T12:18:21.837Z,24.15
2018-07-15T12:20:50.319Z,24.83
2018-07-15T12:23:18.821Z,23.30
2018-07-15T12:25:47.365Z,24.26
2018-07-15T12:28:15.867Z,23.62
2018-07-15T12:30:44.392Z,22.92
2018-07-15T12:33:12.826Z,23.28
2018-07-15T12:35:41.303Z,21.49
2018-07-15T12:38:09.772Z,21.05
2018-07-15T12:40:38.393Z,21.09
2018-07-15T12:43:06.937Z,21.29
2018-07-15T12:45:35.452Z,21.30
2018-07-15T12:48:04.164Z,20.57
2018-07-15T12:50:32.726Z,20.21
2018-07-15T12:53:01.192Z,20.87
2018-07-15T12:55:29.804Z,21.09
2018-07-15T12:57:58.269Z,20.55
2018-07-15T13:00:26.785Z,20.47
2018-07-15T13:02:55.331Z,19.85
2018-07-15T13:05:23.794Z,19.31
2018-07-15T13:07:52.292Z,20.02
2018-07-15T13:10:20.864Z,19.99
2018-07-15T13:12:49.448Z,19.53
2018-07-15T13:15:17.936Z,20.56
2018-07-15T13:17:46.375Z,19.02
2018-07-15T13:20:14.897Z,20.44
2018-07-15T13:22:43.476Z,21.16
2018-07-15T13:25:11.992Z,20.34
2018-07-15T13:27:40.587Z,20.07
2018-07-15T13:30:09.176Z,20.75
2018-07-15T13:32:37.670Z,20.00
2018-07-15T13:35:06.185Z,20.76
2018-07-15T13:37:34.677Z,20.12
2018-07-15T13:40:03.304Z,19.88
2018-07-15T13:42:31.825Z,19.44
2018-07-15T13:45:00.366Z,20.35
2018-07-15T13:47:28.900Z,20.41
2018-07-15T13:49:57.540Z,21.09
2018-07-15T13:52:26.077Z,20.37
2018-07-15T13:54:54.698Z,20.26
2018-07-15T13:57:23.229Z,19.81
2018-07-15T13:59:51.668Z,20.04
2018-07-15T14:02:20.218Z,19.78
2018-07-15T14:04:49.274Z,21.16
2018-07-15T14:07:18.508Z,20.28
2018-07-15T14:09:47.061Z,20.35
2018-07-15T14:12:15.548Z,20.40
2018-07-15T14:14:44.167Z,20.41
2018-07-15T14:17:12.635Z,20.73
2018-07-15T14:19:41.089Z,20.79
2018-07-15T14:22:09.569Z,20.33
2018-07-15T14:24:38.133Z,20.77
2018-07-15T14:27:06.633Z,20.32
2018-07-15T14:29:35.126Z,20.21
2018-07-15T14:32:03.618Z,19.39
2018-07-15T14:34:32.167Z,19.86
2018-07-15T14:37:00.657Z,20.11
2018-07-15T14:39:37.218Z,19.18
2018-07-15T14:42:06.313Z,18.86
2018-07-15T14:44:35.628Z,19.93
2018-07-15T14:47:04.198Z,19.66
2018-07-15T14:49:33.082Z,18.95
2018-07-15T14:52:01.574Z,18.82
2018-07-15T14:54:30.149Z,19.32
2018-07-15T14:56:58.649Z,20.07
2018-07-15T14:59:27.229Z,20.63
2018-07-15T15:01:55.915Z,20.00
2018-07-15T15:04:24.477Z,19.96
2018-07-15T15:06:53.142Z,20.77
2018-07-15T15:09:21.771Z,20.32
2018-07-15T15:11:50.333Z,20.67
2018-07-15T15:14:18.822Z,20.64
2018-07-15T15:16:47.326Z,19.89
2018-07-15T15:19:15.809Z,19.40
2018-07-15T15:21:44.219Z,20.49
2018-07-15T15:24:12.693Z,19.92
2018-07-15T15:26:41.208Z,19.04
2018-07-15T15:29:09.816Z,19.58
2018-07-15T15:31:38.674Z,19.93
2018-07-15T15:34:07.264Z,19.62
2018-07-15T15:36:35.732Z,20.20
2018-07-15T15:39:04.971Z,20.12
2018-07-15T15:41:33.584Z,19.98
2018-07-15T15:44:02.069Z,20.24
2018-07-15T15:46:30.485Z,20.04
2018-07-15T15:48:58.983Z,20.18
2018-07-15T15:51:27.572Z,20.25
2018-07-15T15:53:56.078Z,20.40
2018-07-15T15:56:24.518Z,20.19
2018-07-15T15:58:53.096Z,20.12
2018-07-15T16:01:21.535Z,19.85
2018-07-15T16:03:50.173Z,20.86
2018-07-15T16:06:18.916Z,20.70
2018-07-15T16:08:47.417Z,20.02
2018-07-15T16:11:15.936Z,20.23
2018-07-15T16:13:44.408Z,19.71
2018-07-15T16:16:12.914Z,20.45
2018-07-15T16:18:41.432Z,20.51
2018-07-15T16:21:09.966Z,20.03
2018-07-15T16:23:38.561Z,21.11
2018-07-15T16:26:07.121Z,20.70
2018-07-15T16:28:35.692Z,19.85
2018-07-15T16:31:04.158Z,20.34
2018-07-15T16:33:32.638Z,20.91
2018-07-15T16:36:01.230Z,20.79
2018-07-15T16:38:29.683Z,20.67
2018-07-15T16:40:58.181Z,20.83
2018-07-15T16:43:26.659Z,20.60
2018-07-15T16:45:55.198Z,20.98
2018-07-15T16:48:23.696Z,20.85
2018-07-15T16:50:52.144Z,20.78
2018-07-15T16:53:20.680Z,20.32
2018-07-15T16:55:49.299Z,20.50
2018-07-15T16:58:17.868Z,20.94
2018-07-15T17:00:46.347Z,20.63
2018-07-15T17:03:15.026Z,20.32
2018-07-15T17:05:43.502Z,20.13
2018-07-15T17:08:12.088Z,20.17
2018-07-15T17:10:40.685Z,20.87
2018-07-15T17:13:09.163Z,21.24
2018-07-15T17:15:37.733Z,21.63
2018-07-15T17:18:06.191Z,21.10
2018-07-15T17:20:34.648Z,21.52
2018-07-15T17:23:03.224Z,21.09
2018-07-15T17:25:31.734Z,21.02
2018-07-15T17:28:00.268Z,21.01
2018-07-15T17:30:28.812Z,21.02
2018-07-15T17:32:57.639Z,21.28
2018-07-15T17:35:28.307Z,21.51
2018-07-15T17:37:56.761Z,21.96
2018-07-15T17:40:25.340Z,21.96
2018-07-15T17:42:53.789Z,21.74
2018-07-15T17:45:22.237Z,22.24
2018-07-15T17:47:50.739Z,22.04
2018-07-15T17:50:19.222Z,22.05
2018-07-15T17:52:53.148Z,22.49
2018-07-15T17:55:21.576Z,22.38
2018-07-15T17:57:50.095Z,22.54
2018-07-15T18:00:18.580Z,22.82
2018-07-15T18:02:47.028Z,22.61
2018-07-15T18:05:15.472Z,23.31
2018-07-15T18:11:06.517Z,23.66
2018-07-15T18:13:34.973Z,24.09
2018-07-15T18:16:03.477Z,23.83
2018-07-15T18:18:32.014Z,25.10
2018-07-15T18:21:00.460Z,25.35
2018-07-15T18:23:28.970Z,25.16
2018-07-15T18:25:57.507Z,25.04
2018-07-15T18:28:25.965Z,26.12
2018-07-15T18:30:54.441Z,26.20
2018-07-15T18:33:23.441Z,26.21
2018-07-15T18:35:51.946Z,26.73
2018-07-15T18:38:20.766Z,26.34
2018-07-15T18:40:50.376Z,26.64
2018-07-15T18:43:19.268Z,26.49
2018-07-15T18:45:47.859Z,27.59
2018-07-15T18:48:16.312Z,27.73
2018-07-15T18:50:44.826Z,29.32
2018-07-15T18:53:13.305Z,30.13
2018-07-15T18:55:41.829Z,30.62
2018-07-15T18:58:10.294Z,30.31
2018-07-15T19:00:38.906Z,30.79
2018-07-15T19:03:24.514Z,31.35
2018-07-15T19:05:52.981Z,34.24
2018-07-15T19:08:21.434Z,35.05
2018-07-15T19:10:49.981Z,35.49
2018-07-15T19:13:18.596Z,36.24
2018-07-15T19:15:47.089Z,36.40
2018-07-15T19:18:16.811Z,37.67
2018-07-15T19:20:45.352Z,37.93
2018-07-15T19:23:13.873Z,38.36
2018-07-15T19:25:42.356Z,38.87
2018-07-15T19:28:11.086Z,39.90
2018-07-15T19:30:39.826Z,40.59
2018-07-15T19:33:08.365Z,40.50
2018-07-15T19:35:36.971Z,42.35
2018-07-15T19:38:05.546Z,41.78
2018-07-15T19:40:34.140Z,41.86
2018-07-15T19:43:02.724Z,41.51
2018-07-15T19:45:31.176Z,41.34
2018-07-15T19:47:59.590Z,42.24
2018-07-15T19:50:28.346Z,43.14
2018-07-15T19:52:56.829Z,43.60
2018-07-15T19:55:25.333Z,45.80
2018-07-15T19:57:53.905Z,47.52
2018-07-15T20:00:22.393Z,47.37
2018-07-15T20:02:50.962Z,47.70
2018-07-15T20:05:19.558Z,46.88
2018-07-15T20:07:53.421Z,45.85
2018-07-15T20:10:22.070Z,46.08
2018-07-15T20:12:50.721Z,47.33
2018-07-15T20:15:19.200Z,48.61
2018-07-15T20:17:47.696Z,49.60
2018-07-15T20:20:16.178Z,49.27
2018-07-15T20:22:44.762Z,48.57
2018-07-15T20:25:18.660Z,48.20
2018-07-15T20:27:47.215Z,49.13
2018-07-15T20:30:15.676Z,50.41
2018-07-15T20:32:44.245Z,50.54
2018-07-15T20:35:12.833Z,50.65
2018-07-15T20:37:41.389Z,50.84
2018-07-15T20:40:10.469Z,52.24
2018-07-15T20:42:39.455Z,53.48
2018-07-15T20:45:08.001Z,54.34
2018-07-15T20:47:36.470Z,54.79
2018-07-15T20:50:04.977Z,54.47
2018-07-15T20:52:34.279Z,54.11
2018-07-15T20:55:02.717Z,52.32
2018-07-15T20:57:31.391Z,52.32
2018-07-15T20:59:59.897Z,53.36
2018-07-15T21:02:29.099Z,55.21
2018-07-15T21:04:57.704Z,54.64
2018-07-15T21:07:26.240Z,53.60
2018-07-15T21:09:58.134Z,54.19
2018-07-15T21:12:26.720Z,54.86
2018-07-15T21:14:55.328Z,54.95
2018-07-15T21:17:23.844Z,55.54
2018-07-15T21:19:52.365Z,56.10
2018-07-15T21:22:20.853Z,55.56
2018-07-15T21:24:49.297Z,54.96
2018-07-15T21:27:17.741Z,55.73
2018-07-15T21:29:46.258Z,56.80
2018-07-15T21:32:14.741Z,57.06
2018-07-15T21:34:44.244Z,57.18
2018-07-15T21:37:12.938Z,55.77
2018-07-15T21:39:41.652Z,54.87
2018-07-15T21:42:10.186Z,54.67
2018-07-15T21:44:38.633Z,56.24
2018-07-15T21:47:07.197Z,55.20
2018-07-15T21:49:43.243Z,56.35
2018-07-15T21:52:11.689Z,57.10
2018-07-15T21:54:40.210Z,57.41
2018-07-15T21:57:08.643Z,56.74
2018-07-15T21:59:37.162Z,57.24
2018-07-15T22:02:05.996Z,56.70
2018-07-15T22:04:34.522Z,57.69
2018-07-15T22:07:14.224Z,58.04
2018-07-15T22:09:55.753Z,58.11
2018-07-15T22:12:25.471Z,57.63
2018-07-15T22:14:53.972Z,57.50
2018-07-15T22:17:22.567Z,56.76
2018-07-15T22:19:51.228Z,57.17
2018-07-15T22:22:19.824Z,58.63
2018-07-15T22:24:48.296Z,58.57
2018-07-15T22:27:16.894Z,58.75
2018-07-15T22:29:45.457Z,58.73
2018-07-15T22:32:14.095Z,58.40
2018-07-15T22:34:42.631Z,59.02
2018-07-15T22:37:20.654Z,58.36
2018-07-15T22:39:49.318Z,57.81
2018-07-15T22:42:17.795Z,57.41
2018-07-15T22:44:46.233Z,57.59
2018-07-15T22:47:14.693Z,57.87
2018-07-15T22:49:47.147Z,57.74
2018-07-15T22:52:15.735Z,58.80
2018-07-15T22:54:44.205Z,59.71
2018-07-15T22:57:12.769Z,59.14
2018-07-15T22:59:41.287Z,60.38
2018-07-15T23:02:09.906Z,61.16
2018-07-15T23:05:53.311Z,60.41
2018-07-15T23:08:22.395Z,60.66
2018-07-15T23:10:50.887Z,60.91
2018-07-15T23:13:19.761Z,60.60
2018-07-15T23:15:48.748Z,61.21
2018-07-15T23:18:17.256Z,60.13
2018-07-15T23:20:46.542Z,60.09
2018-07-15T23:23:15.530Z,60.06
2018-07-15T23:25:44.012Z,60.39
2018-07-15T23:28:13.717Z,59.89
2018-07-15T23:30:42.709Z,60.59
2018-07-15T23:33:11.497Z,60.59
2018-07-15T23:35:39.943Z,60.83
2018-07-15T23:38:08.494Z,61.24
2018-07-15T23:40:37.037Z,60.37
2018-07-15T23:43:05.744Z,60.75
2018-07-15T23:45:35.033Z,60.46
2018-07-15T23:48:03.507Z,59.54
2018-07-15T23:50:31.999Z,59.47
2018-07-15T23:53:00.469Z,59.71
2018-07-15T23:55:29.072Z,60.87
2018-07-15T23:57:57.750Z,60.63
